Current | Forecast
Updated: 6:00 PM +10 on February 19, 2018
Observed at Khabarovsk, China
Temperature 10°F
Windchill -8°F
Humidity 57%
Dew Point -2°F
Wind WSW at 20 mph
Pressure 29.89 in (Steady)
Conditions Clear
Visibility -
UV N/A
Clouds
Yesterday's Maximum 9°F
Yesterday's Minimum -11°F approx.
Yesterday's Heating Degree Days 66 approx.
Sunrise6:05 AM CST
Sunset4:31 PM CST
Moon Rise7:44 AM CST
Moon Set8:04 PM CST
Moon PhaseMoon Phase
Waxing Crescent
Raw METARMETAR UHHH 190800Z 24009MPS CAVOK M12/M19 Q1012 R23L/090060 NOSIG RMK QFE752/1003


Monday
. High: 66° F.
Tuesday
. High: 51° F.
Wednesday
. High: 59° F.
Thursday
. High: 51° F.
Friday
. High: 50° F.
Saturday
. High: 50° F.
Sunday
. High: 53° F.
Monday
. High: 66° F.

Units: English | Metric

Find the Weather for any City, State or Zipcode, or Country:

U.S. State List | Severe Weather | Tropical Storms | Ski Conditions
United States | Canada | Central America | South America | Asia | Europe | Australia | Africa | Islands

Weather Underground

© Copyright 2018
The Weather Company, LLC